Chadstone Weather > Observations for 09/09/20

Select Day:



Observations
Time Temp Hum DP Wind Gust Dir Rain >9am Press
C % C kph kph mm hPa
00:00 11.6 87 9.5 0.2 2.5 S 1.5 1036.6
00:10 11.6 87 9.5 0.3 1.1 SSW 1.5 1036.4
00:20 11.5 87 9.4 0.4 3.6 SSW 1.5 1036.2
00:30 11.4 87 9.3 0.1 2.5 S 1.5 1036.1
00:40 11.3 87 9.2 0.0 0.0 N 1.5 1036.1
00:50 11.2 87 9.1 0.0 0.0 N 1.5 1036.1
01:00 11.0 88 9.1 0.0 0.0 N 1.5 1036.2
01:10 11.0 88 9.1 0.0 0.0 N 1.5 1036.2
01:20 10.8 89 9.1 0.0 0.0 N 1.5 1036.2
01:30 10.7 89 9.0 0.0 0.0 N 1.5 1036.1
01:40 10.6 89 8.9 0.0 0.0 N 1.5 1036.1
01:50 10.5 89 8.8 0.0 0.0 N 1.5 1036.1
02:00 10.4 89 8.7 0.0 1.1 S 1.5 1036.1
02:10 10.2 89 8.5 0.0 1.1 S 1.5 1036.1
02:20 10.1 89 8.4 0.1 2.5 S 1.5 1036.0
02:30 10.0 89 8.3 0.4 2.5 S 1.5 1036.1
02:40 9.9 90 8.3 0.0 0.0 N 1.5 1036.0
02:50 9.7 90 8.1 0.0 1.1 S 1.5 1036.0
03:00 9.6 90 8.0 0.0 1.1 S 1.5 1036.1
03:10 9.5 91 8.1 0.0 0.0 N 1.5 1036.0
03:20 9.4 91 8.0 0.1 2.5 S 1.5 1035.8
03:30 9.2 90 7.6 0.1 2.5 S 1.5 1036.0
03:40 9.1 90 7.5 0.0 0.0 N 1.5 1035.9
03:50 9.0 91 7.6 0.0 1.1 S 1.5 1036.0
04:00 9.0 91 7.6 0.0 0.0 N 1.5 1036.0
04:10 9.0 91 7.6 0.0 1.1 S 1.5 1035.9
04:20 8.9 92 7.7 0.0 0.0 N 1.5 1036.1
04:30 8.8 92 7.6 0.0 0.0 N 1.5 1036.1
04:40 8.5 91 7.1 0.2 2.5 S 1.5 1036.1
04:50 8.4 92 7.2 0.0 1.1 S 1.5 1036.3
05:00 8.4 92 7.2 0.0 0.0 N 1.5 1036.4
05:10 8.4 92 7.2 0.0 0.0 N 1.5 1036.4
05:20 8.5 92 7.3 0.0 0.0 N 1.5 1036.4
05:30 8.6 92 7.4 0.0 1.1 S 1.5 1036.4
05:40 8.6 93 7.5 0.0 1.1 S 1.5 1036.6
05:50 8.7 93 7.6 0.0 0.0 N 1.5 1036.6
06:00 8.7 93 7.6 0.2 2.5 SE 1.5 1036.7
06:10 8.8 93 7.7 0.3 5.0 SE 1.5 1036.9
06:20 8.7 93 7.6 0.5 5.0 SE 1.5 1037.0
06:30 8.7 93 7.6 0.8 3.6 SE 1.5 1037.0
06:40 8.6 93 7.5 0.4 2.5 SE 1.5 1037.2
06:50 8.7 93 7.6 0.4 2.5 SSE 1.5 1037.1
07:00 8.9 94 8.0 0.8 3.6 SE 1.5 1037.2
07:10 9.1 93 8.0 0.6 3.6 SE 1.5 1037.3
07:20 9.3 94 8.4 2.4 6.1 SE 1.5 1037.3
07:30 9.8 94 8.9 0.6 7.2 ESE 1.5 1037.4
07:40 10.3 93 9.2 3.0 7.2 SSE 1.5 1037.4
07:50 10.7 93 9.6 4.3 8.6 SE 1.5 1037.3
08:00 11.0 92 9.8 5.2 12.2 S 1.5 1037.4
08:10 11.3 91 9.9 4.5 12.2 SSE 1.5 1037.4
08:20 11.6 89 9.9 6.3 15.8 SE 1.5 1037.3
08:30 11.8 86 9.5 8.1 18.4 SSE 1.5 1037.4
08:40 12.1 82 9.1 9.2 17.3 SE 1.5 1037.4
08:50 12.2 80 8.9 9.3 15.8 SSE 1.5 1037.4
09:00 12.5 75 8.2 9.8 20.9 SE 0.0 1037.3
09:10 12.9 73 8.2 7.3 15.8 SSE 0.0 1037.2
09:20 13.1 70 7.8 8.2 23.4 SSE 0.0 1037.2
09:30 13.2 69 7.6 8.4 23.4 SSE 0.0 1037.2
09:40 13.3 68 7.5 7.3 19.4 S 0.0 1037.0
09:50 13.0 66 6.8 8.1 20.9 SSE 0.0 1037.1
10:00 13.1 67 7.1 6.5 18.4 SSE 0.0 1037.2
10:10 13.2 67 7.2 11.6 22.0 SSE 0.0 1037.2
10:20 13.4 67 7.4 9.7 19.4 S 0.0 1037.2
10:30 13.5 66 7.3 8.8 23.4 SSE 0.0 1037.2
10:40 13.2 65 6.8 11.0 24.5 SE 0.0 1037.1
10:50 13.6 65 7.1 13.2 24.5 SE 0.0 1037.2
11:00 14.2 63 7.3 8.9 18.4 SSE 0.0 1037.0
11:10 14.4 60 6.7 11.2 24.5 SSE 0.0 1036.9
11:20 14.4 62 7.2 8.9 19.4 S 0.0 1036.9
11:30 14.5 62 7.3 9.6 23.4 SSE 0.0 1036.7
11:40 14.2 63 7.3 8.9 24.5 S 0.0 1036.6
11:50 14.4 62 7.2 12.2 24.5 SSE 0.0 1036.9
12:00 15.0 59 7.1 9.7 20.9 S 0.0 1037.1
12:10 15.3 56 6.6 10.0 23.4 S 0.0 1036.8
12:20 15.6 56 6.9 10.8 23.4 S 0.0 1036.6
12:30 15.5 55 6.5 9.2 22.0 SSE 0.0 1036.4
12:40 15.2 56 6.5 10.2 22.0 SE 0.0 1036.2
12:50 15.7 56 7.0 11.5 24.5 SE 0.0 1036.1
13:00 15.9 54 6.6 14.9 28.1 SSE 0.0 1036.1
13:10 15.9 55 6.9 10.1 22.0 S 0.0 1036.0
13:20 15.8 55 6.8 7.4 20.9 SSE 0.0 1035.9
13:30 15.9 55 6.9 9.5 18.4 ESE 0.0 1035.7
13:40 16.3 52 6.4 12.5 25.6 SE 0.0 1035.8
13:50 16.2 53 6.6 11.8 25.6 SE 0.0 1035.6
14:00 16.0 52 6.2 7.3 18.4 SSE 0.0 1035.5
14:10 16.0 53 6.4 7.5 23.4 SW 0.0 1035.4
14:20 16.1 53 6.5 8.0 14.8 SSW 0.0 1035.5
14:30 16.3 53 6.7 7.1 17.3 S 0.0 1035.3
14:40 16.3 53 6.7 8.9 22.0 SSE 0.0 1035.3
14:50 16.0 53 6.4 11.0 19.4 SSE 0.0 1035.2
15:00 16.0 53 6.4 11.7 27.0 SSE 0.0 1035.2
15:10 15.9 55 6.9 10.9 24.5 SE 0.0 1035.2
15:20 15.7 56 7.0 5.2 18.4 S 0.0 1035.2
15:30 15.7 57 7.2 8.4 23.4 SSE 0.0 1035.4
15:40 15.2 58 7.0 10.0 30.6 S 0.0 1035.4
15:50 15.4 59 7.4 9.1 24.5 WNW 0.0 1035.4
16:00 15.3 60 7.6 8.6 23.4 SSE 0.0 1035.3
16:10 14.8 63 7.8 7.7 22.0 SSE 0.0 1035.2
16:20 14.7 63 7.7 8.6 25.6 SSE 0.0 1035.4
16:30 14.5 64 7.8 8.7 25.6 S 0.0 1035.4
16:40 14.3 64 7.6 9.9 23.4 SSE 0.0 1035.5
16:50 14.1 65 7.6 9.9 20.9 SSE 0.0 1035.6
17:00 14.1 65 7.6 9.5 24.5 S 0.0 1035.7
17:10 13.7 66 7.5 10.7 25.6 S 0.0 1035.8
17:20 13.6 67 7.6 12.1 28.1 SSE 0.0 1035.9
17:30 13.4 66 7.2 9.9 23.4 SE 0.0 1035.9
17:40 13.1 66 6.9 10.1 23.4 SSE 0.0 1035.9
17:50 12.8 67 6.8 7.1 19.4 SSE 0.0 1035.9
18:00 12.5 68 6.8 8.9 23.4 SSE 0.0 1035.9
18:10 12.4 68 6.7 7.9 25.6 SSE 0.0 1036.2
18:20 12.1 69 6.6 9.1 18.4 SSE 0.0 1036.2
18:30 11.9 70 6.6 8.0 19.4 SSE 0.0 1036.1
18:40 11.7 71 6.6 6.0 15.8 SSE 0.0 1036.2
18:50 11.6 71 6.5 7.2 15.8 S 0.0 1036.1
19:00 11.5 72 6.6 6.1 17.3 SSE 0.0 1036.1
19:10 11.4 72 6.5 5.8 19.4 SSE 0.0 1036.4
19:20 11.2 73 6.5 6.9 15.8 S 0.0 1036.3
19:30 11.1 73 6.4 5.9 15.8 SE 0.0 1036.4
19:40 11.0 73 6.3 4.3 18.4 S 0.0 1036.4
19:50 10.9 75 6.6 4.4 15.8 S 0.0 1036.3
20:00 10.8 75 6.5 6.3 12.2 SE 0.0 1036.4
20:10 10.7 75 6.5 4.4 12.2 SE 0.0 1036.4
20:20 10.6 76 6.5 4.7 11.2 S 0.0 1036.4
20:30 10.6 76 6.5 4.7 9.7 SW 0.0 1036.5
20:40 10.5 76 6.5 4.6 12.2 S 0.0 1036.4
20:50 10.4 77 6.5 5.9 17.3 SSE 0.0 1036.4
21:00 10.3 78 6.6 5.4 14.8 SSE 0.0 1036.4
21:10 10.3 78 6.6 5.1 14.8 S 0.0 1036.4
21:20 10.2 79 6.7 6.2 14.8 S 0.0 1036.5
21:30 10.1 80 6.8 5.8 14.8 SSE 0.0 1036.4
21:40 10.1 81 7.0 4.8 13.3 S 0.0 1036.5
21:50 10.1 82 7.2 5.3 12.2 S 0.0 1036.5
22:00 10.1 82 7.2 5.8 12.2 S 0.0 1036.4
22:10 10.0 83 7.2 3.8 8.6 S 0.0 1036.3
22:20 9.9 84 7.3 1.7 7.2 S 0.0 1036.3
22:30 9.8 84 7.2 0.2 2.5 SE 0.0 1036.2
22:40 9.7 84 7.1 0.1 2.5 SE 0.0 1036.3
22:50 9.5 85 7.1 4.3 13.3 S 0.0 1036.1
23:00 9.5 85 7.1 4.0 14.8 SSE 0.0 1036.1
23:10 9.5 86 7.3 7.4 14.8 SSE 0.0 1036.0
23:20 9.5 86 7.3 9.8 18.4 SSE 0.0 1035.8
23:30 9.4 86 7.2 11.6 27.0 SE 0.0 1035.6
23:40 9.3 86 7.1 6.7 20.9 SE 0.0 1035.6
23:50 9.2 86 7.0 6.1 17.3 SSE 0.0 1035.6